• Join FlightAware (Why Join?)
  • Login
  • US Flag 
12:12PM EDT


 

Airport Tracker/Info


-or-


 

Live Flight TrackerFlight Track Log ✈ UAL4695 ✈ 23-Apr-2013 ✈ KRIC - KEWR

Flight Track Log - Related Links

Times and Time Zones

All times are in EDT time to prevent confusion due to time zone crossing. See the UAL4695 flight status page for this flight to view local times or setup timezone preferences in your user account.

Time Position Orientation Groundspeed Altitude Reporting Facility
EDT Latitude Longitude Course Direction KTS MPH feet Rate Location/Type
07:30PM 37.5667 -77.2833 38° Northeast 236 272 4,400  Level Potomac TRACON
07:30PM 37.5797 -77.2664 46° Northeast 249 287 5,200 3,180 Climbing Washington Center
07:31PM 37.6122 -77.1806 64° Northeast 272 313 8,400 1,860 Climbing Washington Center
07:32PM 37.7257 -77.0743 38° Northeast  Level FlightAware Approximate
07:32PM 37.6528 -77.1053 56° Northeast 266 306 9,000  Level Washington Center
07:33PM 37.7839 -77.0161 38° Northeast  Level FlightAware Approximate
07:33PM 37.7161 -77.0489 35° Northeast 294 338 9,000  Level Washington Center
07:34PM 37.8422 -76.9579 38° Northeast  Level FlightAware Approximate
07:34PM 37.7792 -76.9947 34° Northeast 288 331 10,900  Level Washington Center
07:35PM 37.9004 -76.8997 38° Northeast  Level FlightAware Approximate
07:35PM 37.8614 -76.9306 32° Northeast 309 356 11,000  Level Washington Center
07:36PM 37.9475 -76.8636 32° Northeast 340 391 12,600 2,040 Climbing Washington Center
07:37PM 38.0236 -76.7700 44° Northeast 360 414 15,100 2,100 Climbing Washington Center
07:38PM 38.0933 -76.6683 49° Northeast 366 421 16,900 900 Climbing Washington Center
07:39PM 38.1672 -76.5636 48° Northeast 384 442 17,000  Climbing Washington Center
07:40PM 38.2431 -76.4614 47° Northeast 390 449 17,000  Level Washington Center
07:41PM 38.3353 -76.3939 30° Northeast 380 437 17,000  Level Washington Center
07:42PM 38.4397 -76.3736 North 363 418 17,000  Level Washington Center
07:43PM 38.5461 -76.3536 North 368 423 17,000  Level Washington Center
07:44PM 38.6506 -76.3333 North 378 435 17,000  Level Washington Center
07:45PM 38.7569 -76.3131 North 378 435 17,000  Level Washington Center
07:46PM 38.8528 -76.3353 350° North 352 405 17,000  Level Washington Center
07:47PM 38.9419 -76.3764 340° North 340 391 17,000  Level Washington Center
07:48PM 39.0314 -76.4147 342° North 335 386 17,000  Level Washington Center
07:49PM 39.1208 -76.4558 340° North 340 391 17,000  Level Washington Center
07:50PM 39.2106 -76.4489 North 321 369 17,000  Level Washington Center
07:51PM 39.2258 -76.3178 81° East 266 306 17,000  Level Washington Center
07:52PM 39.2244 -76.1811 91° East 303 349 17,000 -60 Level Washington Center
07:53PM 39.2542 -76.0633 72° East 341 392 16,900 -60 Descending Washington Center
07:54PM 39.2881 -75.9375 71° East 354 407 16,900  Level Washington Center
07:55PM 39.3194 -75.8117 72° East 366 421 16,900  Level Washington Center
07:56PM 39.3864 -75.7231 46° Northeast 350 403 16,900  Level Washington Center
07:57PM 39.4719 -75.6533 32° Northeast 338 389 16,900  Level Washington Center
07:58PM 39.5572 -75.5889 30° Northeast 344 396 16,900  Level Washington Center
07:59PM 39.6406 -75.5242 31° Northeast 344 396 16,900  Level Washington Center
08:00PM 39.7219 -75.4594 31° Northeast 344 396 16,900 -300 Level Washington Center
08:01PM 39.7947 -75.3972 33° Northeast 330 380 16,400 -900 Descending Washington Center
08:02PM 39.8653 -75.3428 31° Northeast 311 358 15,100 -1,200 Descending Washington Center
08:03PM 39.9381 -75.2831 32° Northeast 306 352 14,100 -1,020 Descending Washington Center
08:04PM 40.0047 -75.2150 38° Northeast 300 345 13,100 -1,140 Descending Washington Center
08:05PM 40.0628 -75.1414 44° Northeast 295 339 11,900 -1,140 Descending Washington Center
08:06PM 40.1289 -75.0622 42° Northeast 290 334 10,900 -900 Descending Washington Center
08:07PM 40.1767 -74.9806 53° Northeast 285 328 10,100 -1,080 Descending Washington Center
08:08PM 40.2000 -74.9000 69° East 285 328 8,900 -1,140 Descending New York TRACON
08:09PM 40.2667 -74.8667 21° North 263 303 8,000 -780 Descending New York TRACON
08:10PM 40.3167 -74.8000 45° Northeast 275 316 7,400 -840 Descending New York TRACON
08:11PM 40.3500 -74.7167 62° Northeast 269 310 6,400 -1,020 Descending New York TRACON
08:12PM 40.3833 -74.6333 62° Northeast 254 292 5,400 -1,020 Descending New York TRACON
08:13PM 40.4167 -74.5667 57° Northeast 222 255 4,400 -1,020 Descending New York TRACON
08:14PM 40.4500 -74.4833 62° Northeast 208 239 3,400 -720 Descending New York TRACON
08:15PM 40.4500 -74.4167 90° East 182 209 3,000 -240 Descending New York TRACON
08:16PM 40.4833 -74.3667 49° Northeast 176 203 3,000  Level New York TRACON
08:17PM 40.5000 -74.3000 72° East 178 205 3,000  Level New York TRACON
08:18PM 40.5333 -74.2667 37° Northeast 185 213 3,000  Level New York TRACON